TAF KLLQ
KLLQ 090526Z 0906/1006 VRB04KT P6SM SCT250 FM091300 VRB05KT P6SM OVC015 FM091500 18008G15KT P6SM BKN008 OVC015 FM100000 VRB05KT P6SM BKN008 OVC015=
METAR KLLQ
WC KLLQ
WS KLLQ
WV KLLQ